Aviation Digital Data Service (ADDS)

Output produced by METARs form (1502 UTC 22 April 2019)
found at http://www.aviationweather.gov/metar/data/
 
METAR text: LSGG 221450Z 06006KT CAVOK 23/02 Q1001 NOSIG
Conditions at: LSGG (GENEVA/COINTRIN , CH) observed 1450 UTC 22 April 2019
Temperature: 23.0°C (73°F)
Dewpoint: 2.0°C (36°F) [RH = 25%]
Pressure (altimeter): 29.56 inches Hg (1001.0 mb)
Winds: from the ENE (60 degrees) at 7 MPH (6 knots; 3.1 m/s)
Visibility: 6 or more miles (10+ km)
Ceiling: ceiling and visibility are OK
Clouds: unknown
Weather: no significant weather observed at this time

METAR text: LSGG 221420Z 03007KT CAVOK 23/04 Q1001 NOSIG
Conditions at: LSGG (GENEVA/COINTRIN , CH) observed 1420 UTC 22 April 2019
Temperature: 23.0°C (73°F)
Dewpoint: 4.0°C (39°F) [RH = 29%]
Pressure (altimeter): 29.56 inches Hg (1001.0 mb)
Winds: from the NNE (30 degrees) at 8 MPH (7 knots; 3.6 m/s)
Visibility: 6 or more miles (10+ km)
Ceiling: ceiling and visibility are OK
Clouds: unknown
Weather: no significant weather observed at this time

METAR text: LSGG 221350Z 03007KT CAVOK 22/02 Q1002 NOSIG
Conditions at: LSGG (GENEVA/COINTRIN , CH) observed 1350 UTC 22 April 2019
Temperature: 22.0°C (72°F)
Dewpoint: 2.0°C (36°F) [RH = 27%]
Pressure (altimeter): 29.59 inches Hg (1002.0 mb)
Winds: from the NNE (30 degrees) at 8 MPH (7 knots; 3.6 m/s)
Visibility: 6 or more miles (10+ km)
Ceiling: ceiling and visibility are OK
Clouds: unknown
Weather: no significant weather observed at this time

METAR text: LSGG 221320Z 04007KT 010V090 CAVOK 22/03 Q1002 NOSIG
Conditions at: LSGG (GENEVA/COINTRIN , CH) observed 1320 UTC 22 April 2019
Temperature: 22.0°C (72°F)
Dewpoint: 3.0°C (37°F) [RH = 29%]
Pressure (altimeter): 29.59 inches Hg (1002.0 mb)
Winds: from the NE (40 degrees) at 8 MPH (7 knots; 3.6 m/s)
Visibility: 6 or more miles (10+ km)
Ceiling: ceiling and visibility are OK
Clouds: unknown
Weather: no significant weather observed at this time

METAR text: LSGG 221250Z 05010KT CAVOK 22/02 Q1003 NOSIG
Conditions at: LSGG (GENEVA/COINTRIN , CH) observed 1250 UTC 22 April 2019
Temperature: 22.0°C (72°F)
Dewpoint: 2.0°C (36°F) [RH = 27%]
Pressure (altimeter): 29.62 inches Hg (1003.0 mb)
Winds: from the NE (50 degrees) at 12 MPH (10 knots; 5.1 m/s)
Visibility: 6 or more miles (10+ km)
Ceiling: ceiling and visibility are OK
Clouds: unknown
Weather: no significant weather observed at this time

METAR text: LSGG 221220Z 06009KT CAVOK 21/03 Q1003 NOSIG
Conditions at: LSGG (GENEVA/COINTRIN , CH) observed 1220 UTC 22 April 2019
Temperature: 21.0°C (70°F)
Dewpoint: 3.0°C (37°F) [RH = 30%]
Pressure (altimeter): 29.62 inches Hg (1003.0 mb)
Winds: from the ENE (60 degrees) at 10 MPH (9 knots; 4.6 m/s)
Visibility: 6 or more miles (10+ km)
Ceiling: ceiling and visibility are OK
Clouds: unknown
Weather: no significant weather observed at this time

METAR text: LSGG 221150Z 05009KT CAVOK 21/03 Q1004 NOSIG
Conditions at: LSGG (GENEVA/COINTRIN , CH) observed 1150 UTC 22 April 2019
Temperature: 21.0°C (70°F)
Dewpoint: 3.0°C (37°F) [RH = 30%]
Pressure (altimeter): 29.65 inches Hg (1004.0 mb)
Winds: from the NE (50 degrees) at 10 MPH (9 knots; 4.6 m/s)
Visibility: 6 or more miles (10+ km)
Ceiling: ceiling and visibility are OK
Clouds: unknown
Weather: no significant weather observed at this time

METAR text: LSGG 221120Z 04006KT 360V080 CAVOK 20/03 Q1004 NOSIG
Conditions at: LSGG (GENEVA/COINTRIN , CH) observed 1120 UTC 22 April 2019
Temperature: 20.0°C (68°F)
Dewpoint: 3.0°C (37°F) [RH = 32%]
Pressure (altimeter): 29.65 inches Hg (1004.0 mb)
Winds: from the NE (40 degrees) at 7 MPH (6 knots; 3.1 m/s)
Visibility: 6 or more miles (10+ km)
Ceiling: ceiling and visibility are OK
Clouds: unknown
Weather: no significant weather observed at this time

METAR text: LSGG 221050Z 03006KT 300V070 CAVOK 19/04 Q1005 NOSIG
Conditions at: LSGG (GENEVA/COINTRIN , CH) observed 1050 UTC 22 April 2019
Temperature: 19.0°C (66°F)
Dewpoint: 4.0°C (39°F) [RH = 37%]
Pressure (altimeter): 29.68 inches Hg (1005.0 mb)
Winds: from the NNE (30 degrees) at 7 MPH (6 knots; 3.1 m/s)
Visibility: 6 or more miles (10+ km)
Ceiling: ceiling and visibility are OK
Clouds: unknown
Weather: no significant weather observed at this time

METAR text: LSGG 221020Z VRB03KT CAVOK 18/05 Q1006 NOSIG
Conditions at: LSGG (GENEVA/COINTRIN , CH) observed 1020 UTC 22 April 2019
Temperature: 18.0°C (64°F)
Dewpoint: 5.0°C (41°F) [RH = 42%]
Pressure (altimeter): 29.70 inches Hg (1006.0 mb)
Winds: variable direction winds at 3 MPH (3 knots; 1.5 m/s)
Visibility: 6 or more miles (10+ km)
Ceiling: ceiling and visibility are OK
Clouds: unknown
Weather: no significant weather observed at this time

METAR text: LSGG 220950Z 05004KT 340V100 CAVOK 17/04 Q1006 NOSIG
Conditions at: LSGG (GENEVA/COINTRIN , CH) observed 0950 UTC 22 April 2019
Temperature: 17.0°C (63°F)
Dewpoint: 4.0°C (39°F) [RH = 42%]
Pressure (altimeter): 29.70 inches Hg (1006.0 mb)
Winds: from the NE (50 degrees) at 5 MPH (4 knots; 2.1 m/s)
Visibility: 6 or more miles (10+ km)
Ceiling: ceiling and visibility are OK
Clouds: unknown
Weather: no significant weather observed at this time

METAR text: LSGG 220920Z 05004KT 340V090 CAVOK 18/04 Q1006 NOSIG
Conditions at: LSGG (GENEVA/COINTRIN , CH) observed 0920 UTC 22 April 2019
Temperature: 18.0°C (64°F)
Dewpoint: 4.0°C (39°F) [RH = 39%]
Pressure (altimeter): 29.70 inches Hg (1006.0 mb)
Winds: from the NE (50 degrees) at 5 MPH (4 knots; 2.1 m/s)
Visibility: 6 or more miles (10+ km)
Ceiling: ceiling and visibility are OK
Clouds: unknown
Weather: no significant weather observed at this time

METAR text: LSGG 220850Z 08004KT 040V130 CAVOK 17/03 Q1007 NOSIG
Conditions at: LSGG (GENEVA/COINTRIN , CH) observed 0850 UTC 22 April 2019
Temperature: 17.0°C (63°F)
Dewpoint: 3.0°C (37°F) [RH = 39%]
Pressure (altimeter): 29.73 inches Hg (1007.0 mb)
Winds: from the E (80 degrees) at 5 MPH (4 knots; 2.1 m/s)
Visibility: 6 or more miles (10+ km)
Ceiling: ceiling and visibility are OK
Clouds: unknown
Weather: no significant weather observed at this time

METAR text: LSGG 220820Z VRB02KT CAVOK 16/02 Q1007 NOSIG
Conditions at: LSGG (GENEVA/COINTRIN , CH) observed 0820 UTC 22 April 2019
Temperature: 16.0°C (61°F)
Dewpoint: 2.0°C (36°F) [RH = 39%]
Pressure (altimeter): 29.73 inches Hg (1007.0 mb)
Winds: variable direction winds at 2 MPH (2 knots; 1.0 m/s)
Visibility: 6 or more miles (10+ km)
Ceiling: ceiling and visibility are OK
Clouds: unknown
Weather: no significant weather observed at this time

METAR text: LSGG 220750Z VRB02KT CAVOK 15/04 Q1007 NOSIG
Conditions at: LSGG (GENEVA/COINTRIN , CH) observed 0750 UTC 22 April 2019
Temperature: 15.0°C (59°F)
Dewpoint: 4.0°C (39°F) [RH = 48%]
Pressure (altimeter): 29.73 inches Hg (1007.0 mb)
Winds: variable direction winds at 2 MPH (2 knots; 1.0 m/s)
Visibility: 6 or more miles (10+ km)
Ceiling: ceiling and visibility are OK
Clouds: unknown
Weather: no significant weather observed at this time

METAR text: LSGG 220720Z VRB01KT CAVOK 14/06 Q1008 NOSIG
Conditions at: LSGG (GENEVA/COINTRIN , CH) observed 0720 UTC 22 April 2019
Temperature: 14.0°C (57°F)
Dewpoint: 6.0°C (43°F) [RH = 58%]
Pressure (altimeter): 29.76 inches Hg (1008.0 mb)
Winds: variable direction winds at 1 MPH (1 knots; 0.5 m/s)
Visibility: 6 or more miles (10+ km)
Ceiling: ceiling and visibility are OK
Clouds: unknown
Weather: no significant weather observed at this time

METAR text: LSGG 220650Z VRB02KT CAVOK 13/07 Q1008 NOSIG
Conditions at: LSGG (GENEVA/COINTRIN , CH) observed 0650 UTC 22 April 2019
Temperature: 13.0°C (55°F)
Dewpoint: 7.0°C (45°F) [RH = 67%]
Pressure (altimeter): 29.76 inches Hg (1008.0 mb)
Winds: variable direction winds at 2 MPH (2 knots; 1.0 m/s)
Visibility: 6 or more miles (10+ km)
Ceiling: ceiling and visibility are OK
Clouds: unknown
Weather: no significant weather observed at this time

METAR text: LSGG 220620Z VRB02KT CAVOK 11/07 Q1008 NOSIG
Conditions at: LSGG (GENEVA/COINTRIN , CH) observed 0620 UTC 22 April 2019
Temperature: 11.0°C (52°F)
Dewpoint: 7.0°C (45°F) [RH = 76%]
Pressure (altimeter): 29.76 inches Hg (1008.0 mb)
Winds: variable direction winds at 2 MPH (2 knots; 1.0 m/s)
Visibility: 6 or more miles (10+ km)
Ceiling: ceiling and visibility are OK
Clouds: unknown
Weather: no significant weather observed at this time

METAR text: LSGG 220550Z VRB02KT CAVOK 10/07 Q1009 NOSIG
Conditions at: LSGG (GENEVA/COINTRIN , CH) observed 0550 UTC 22 April 2019
Temperature: 10.0°C (50°F)
Dewpoint: 7.0°C (45°F) [RH = 82%]
Pressure (altimeter): 29.79 inches Hg (1009.0 mb)
Winds: variable direction winds at 2 MPH (2 knots; 1.0 m/s)
Visibility: 6 or more miles (10+ km)
Ceiling: ceiling and visibility are OK
Clouds: unknown
Weather: no significant weather observed at this time

METAR text: LSGG 220520Z 08002KT CAVOK 10/07 Q1009 NOSIG
Conditions at: LSGG (GENEVA/COINTRIN , CH) observed 0520 UTC 22 April 2019
Temperature: 10.0°C (50°F)
Dewpoint: 7.0°C (45°F) [RH = 82%]
Pressure (altimeter): 29.79 inches Hg (1009.0 mb)
Winds: from the E (80 degrees) at 2 MPH (2 knots; 1.0 m/s)
Visibility: 6 or more miles (10+ km)
Ceiling: ceiling and visibility are OK
Clouds: unknown
Weather: no significant weather observed at this time

METAR text: LSGG 220450Z 01005KT CAVOK 10/07 Q1009 NOSIG
Conditions at: LSGG (GENEVA/COINTRIN , CH) observed 0450 UTC 22 April 2019
Temperature: 10.0°C (50°F)
Dewpoint: 7.0°C (45°F) [RH = 82%]
Pressure (altimeter): 29.79 inches Hg (1009.0 mb)
Winds: from the N (10 degrees) at 6 MPH (5 knots; 2.6 m/s)
Visibility: 6 or more miles (10+ km)
Ceiling: ceiling and visibility are OK
Clouds: unknown
Weather: no significant weather observed at this time

METAR text: LSGG 220420Z 34004KT 280V010 9999 FEW080 BKN110 11/07 Q1009 NOSIG
Conditions at: LSGG (GENEVA/COINTRIN , CH) observed 0420 UTC 22 April 2019
Temperature: 11.0°C (52°F)
Dewpoint: 7.0°C (45°F) [RH = 76%]
Pressure (altimeter): 29.79 inches Hg (1009.0 mb)
Winds: from the NNW (340 degrees) at 5 MPH (4 knots; 2.1 m/s)
Visibility: 6 or more miles (10+ km)
Ceiling: 11000 feet AGL
Clouds: few clouds at 8000 feet AGL
broken clouds at 11000 feet AGL
Weather: no significant weather observed at this time

METAR text: LSGG 220350Z VRB02KT 9999 FEW060 SCT080 BKN100 11/08 Q1009 NOSIG
Conditions at: LSGG (GENEVA/COINTRIN , CH) observed 0350 UTC 22 April 2019
Temperature: 11.0°C (52°F)
Dewpoint: 8.0°C (46°F) [RH = 82%]
Pressure (altimeter): 29.79 inches Hg (1009.0 mb)
Winds: variable direction winds at 2 MPH (2 knots; 1.0 m/s)
Visibility: 6 or more miles (10+ km)
Ceiling: 10000 feet AGL
Clouds: few clouds at 6000 feet AGL
scattered clouds at 8000 feet AGL
broken clouds at 10000 feet AGL
Weather: no significant weather observed at this time

METAR text: LSGG 220320Z AUTO 14007KT 070V170 9999 -RA FEW053 BKN080 11/07 Q1010 NOSIG
Conditions at: LSGG (GENEVA/COINTRIN , CH) observed 0320 UTC 22 April 2019
Temperature: 11.0°C (52°F)
Dewpoint: 7.0°C (45°F) [RH = 76%]
Pressure (altimeter): 29.82 inches Hg (1010.0 mb)
Winds: from the SE (140 degrees) at 8 MPH (7 knots; 3.6 m/s)
Visibility: 6 or more miles (10+ km)
Ceiling: 8000 feet AGL
Clouds: few clouds at 5300 feet AGL
broken clouds at 8000 feet AGL
Weather: -RA  (light rain)

METAR text: LSGG 220250Z AUTO 32004KT 9999 -RA FEW074 BKN079 11/06 Q1010 NOSIG
Conditions at: LSGG (GENEVA/COINTRIN , CH) observed 0250 UTC 22 April 2019
Temperature: 11.0°C (52°F)
Dewpoint: 6.0°C (43°F) [RH = 71%]
Pressure (altimeter): 29.82 inches Hg (1010.0 mb)
Winds: from the NW (320 degrees) at 5 MPH (4 knots; 2.1 m/s)
Visibility: 6 or more miles (10+ km)
Ceiling: 7900 feet AGL
Clouds: few clouds at 7400 feet AGL
broken clouds at 7900 feet AGL
Weather: -RA  (light rain)

METAR text: LSGG 220220Z AUTO VRB02KT 9999 -RA BKN073 SCT100 11/06 Q1011 NOSIG
Conditions at: LSGG (GENEVA/COINTRIN , CH) observed 0220 UTC 22 April 2019
Temperature: 11.0°C (52°F)
Dewpoint: 6.0°C (43°F) [RH = 71%]
Pressure (altimeter): 29.85 inches Hg (1011.0 mb)
Winds: variable direction winds at 2 MPH (2 knots; 1.0 m/s)
Visibility: 6 or more miles (10+ km)
Ceiling: 7300 feet AGL
Clouds: broken clouds at 7300 feet AGL
scattered clouds at 10000 feet AGL
Weather: -RA  (light rain)

METAR text: LSGG 220150Z AUTO 18001KT 9999 FEW095 BKN130 10/06 Q1011 NOSIG
Conditions at: LSGG (GENEVA/COINTRIN , CH) observed 0150 UTC 22 April 2019
Temperature: 10.0°C (50°F)
Dewpoint: 6.0°C (43°F) [RH = 76%]
Pressure (altimeter): 29.85 inches Hg (1011.0 mb)
Winds: from the S (180 degrees) at 1 MPH (1 knots; 0.5 m/s)
Visibility: 6 or more miles (10+ km)
Ceiling: 13000 feet AGL
Clouds: few clouds at 9500 feet AGL
broken clouds at 13000 feet AGL
Weather: no significant weather observed at this time

METAR text: LSGG 220120Z AUTO VRB01KT 9999 BKN085 11/06 Q1011 NOSIG
Conditions at: LSGG (GENEVA/COINTRIN , CH) observed 0120 UTC 22 April 2019
Temperature: 11.0°C (52°F)
Dewpoint: 6.0°C (43°F) [RH = 71%]
Pressure (altimeter): 29.85 inches Hg (1011.0 mb)
Winds: variable direction winds at 1 MPH (1 knots; 0.5 m/s)
Visibility: 6 or more miles (10+ km)
Ceiling: 8500 feet AGL
Clouds: broken clouds at 8500 feet AGL
Weather: no significant weather observed at this time

METAR text: LSGG 220050Z AUTO VRB01KT 9999 SCT090 BKN120 10/06 Q1012 NOSIG
Conditions at: LSGG (GENEVA/COINTRIN , CH) observed 0050 UTC 22 April 2019
Temperature: 10.0°C (50°F)
Dewpoint: 6.0°C (43°F) [RH = 76%]
Pressure (altimeter): 29.88 inches Hg (1012.0 mb)
Winds: variable direction winds at 1 MPH (1 knots; 0.5 m/s)
Visibility: 6 or more miles (10+ km)
Ceiling: 12000 feet AGL
Clouds: scattered clouds at 9000 feet AGL
broken clouds at 12000 feet AGL
Weather: no significant weather observed at this time

METAR text: LSGG 220020Z AUTO VRB01KT CAVOK 10/06 Q1012 NOSIG
Conditions at: LSGG (GENEVA/COINTRIN , CH) observed 0020 UTC 22 April 2019
Temperature: 10.0°C (50°F)
Dewpoint: 6.0°C (43°F) [RH = 76%]
Pressure (altimeter): 29.88 inches Hg (1012.0 mb)
Winds: variable direction winds at 1 MPH (1 knots; 0.5 m/s)
Visibility: 6 or more miles (10+ km)
Ceiling: ceiling and visibility are OK
Clouds: unknown
Weather: no significant weather observed at this time

METAR text: LSGG 212350Z AUTO VRB01KT CAVOK 10/06 Q1012 NOSIG
Conditions at: LSGG (GENEVA/COINTRIN , CH) observed 2350 UTC 21 April 2019
Temperature: 10.0°C (50°F)
Dewpoint: 6.0°C (43°F) [RH = 76%]
Pressure (altimeter): 29.88 inches Hg (1012.0 mb)
Winds: variable direction winds at 1 MPH (1 knots; 0.5 m/s)
Visibility: 6 or more miles (10+ km)
Ceiling: ceiling and visibility are OK
Clouds: unknown
Weather: no significant weather observed at this time

METAR text: LSGG 212320Z AUTO 00000KT CAVOK 10/06 Q1012 NOSIG
Conditions at: LSGG (GENEVA/COINTRIN , CH) observed 2320 UTC 21 April 2019
Temperature: 10.0°C (50°F)
Dewpoint: 6.0°C (43°F) [RH = 76%]
Pressure (altimeter): 29.88 inches Hg (1012.0 mb)
Winds: calm
Visibility: 6 or more miles (10+ km)
Ceiling: ceiling and visibility are OK
Clouds: unknown
Weather: no significant weather observed at this time

METAR text: LSGG 212250Z AUTO VRB01KT CAVOK 11/05 Q1012 NOSIG
Conditions at: LSGG (GENEVA/COINTRIN , CH) observed 2250 UTC 21 April 2019
Temperature: 11.0°C (52°F)
Dewpoint: 5.0°C (41°F) [RH = 66%]
Pressure (altimeter): 29.88 inches Hg (1012.0 mb)
Winds: variable direction winds at 1 MPH (1 knots; 0.5 m/s)
Visibility: 6 or more miles (10+ km)
Ceiling: ceiling and visibility are OK
Clouds: unknown
Weather: no significant weather observed at this time

METAR text: LSGG 212220Z AUTO VRB01KT 9999 NSC 10/05 Q1012 NOSIG
Conditions at: LSGG (GENEVA/COINTRIN , CH) observed 2220 UTC 21 April 2019
Temperature: 10.0°C (50°F)
Dewpoint: 5.0°C (41°F) [RH = 71%]
Pressure (altimeter): 29.88 inches Hg (1012.0 mb)
Winds: variable direction winds at 1 MPH (1 knots; 0.5 m/s)
Visibility: 6 or more miles (10+ km)
Ceiling: at least 12,000 feet AGL
Clouds: sky clear below 12,000 feet AGL
Weather: no significant weather observed at this time

METAR text: LSGG 212150Z AUTO 02001KT CAVOK 11/05 Q1012 NOSIG
Conditions at: LSGG (GENEVA/COINTRIN , CH) observed 2150 UTC 21 April 2019
Temperature: 11.0°C (52°F)
Dewpoint: 5.0°C (41°F) [RH = 66%]
Pressure (altimeter): 29.88 inches Hg (1012.0 mb)
Winds: from the NNE (20 degrees) at 1 MPH (1 knots; 0.5 m/s)
Visibility: 6 or more miles (10+ km)
Ceiling: ceiling and visibility are OK
Clouds: unknown
Weather: no significant weather observed at this time

METAR text: LSGG 212120Z VRB01KT CAVOK 11/05 Q1013 NOSIG
Conditions at: LSGG (GENEVA/COINTRIN , CH) observed 2120 UTC 21 April 2019
Temperature: 11.0°C (52°F)
Dewpoint: 5.0°C (41°F) [RH = 66%]
Pressure (altimeter): 29.91 inches Hg (1013.0 mb)
Winds: variable direction winds at 1 MPH (1 knots; 0.5 m/s)
Visibility: 6 or more miles (10+ km)
Ceiling: ceiling and visibility are OK
Clouds: unknown
Weather: no significant weather observed at this time

METAR text: LSGG 212050Z VRB01KT CAVOK 11/05 Q1013 NOSIG
Conditions at: LSGG (GENEVA/COINTRIN , CH) observed 2050 UTC 21 April 2019
Temperature: 11.0°C (52°F)
Dewpoint: 5.0°C (41°F) [RH = 66%]
Pressure (altimeter): 29.91 inches Hg (1013.0 mb)
Winds: variable direction winds at 1 MPH (1 knots; 0.5 m/s)
Visibility: 6 or more miles (10+ km)
Ceiling: ceiling and visibility are OK
Clouds: unknown
Weather: no significant weather observed at this time

METAR text: LSGG 212020Z VRB01KT CAVOK 12/05 Q1013 NOSIG
Conditions at: LSGG (GENEVA/COINTRIN , CH) observed 2020 UTC 21 April 2019
Temperature: 12.0°C (54°F)
Dewpoint: 5.0°C (41°F) [RH = 62%]
Pressure (altimeter): 29.91 inches Hg (1013.0 mb)
Winds: variable direction winds at 1 MPH (1 knots; 0.5 m/s)
Visibility: 6 or more miles (10+ km)
Ceiling: ceiling and visibility are OK
Clouds: unknown
Weather: no significant weather observed at this time

METAR text: LSGG 211950Z 33001KT CAVOK 12/06 Q1013 NOSIG
Conditions at: LSGG (GENEVA/COINTRIN , CH) observed 1950 UTC 21 April 2019
Temperature: 12.0°C (54°F)
Dewpoint: 6.0°C (43°F) [RH = 67%]
Pressure (altimeter): 29.91 inches Hg (1013.0 mb)
Winds: from the NNW (330 degrees) at 1 MPH (1 knots; 0.5 m/s)
Visibility: 6 or more miles (10+ km)
Ceiling: ceiling and visibility are OK
Clouds: unknown
Weather: no significant weather observed at this time

METAR text: LSGG 211920Z VRB02KT CAVOK 13/05 Q1013 NOSIG
Conditions at: LSGG (GENEVA/COINTRIN , CH) observed 1920 UTC 21 April 2019
Temperature: 13.0°C (55°F)
Dewpoint: 5.0°C (41°F) [RH = 58%]
Pressure (altimeter): 29.91 inches Hg (1013.0 mb)
Winds: variable direction winds at 2 MPH (2 knots; 1.0 m/s)
Visibility: 6 or more miles (10+ km)
Ceiling: ceiling and visibility are OK
Clouds: unknown
Weather: no significant weather observed at this time

METAR text: LSGG 211850Z 09002KT CAVOK 14/05 Q1013 NOSIG
Conditions at: LSGG (GENEVA/COINTRIN , CH) observed 1850 UTC 21 April 2019
Temperature: 14.0°C (57°F)
Dewpoint: 5.0°C (41°F) [RH = 55%]
Pressure (altimeter): 29.91 inches Hg (1013.0 mb)
Winds: from the E (90 degrees) at 2 MPH (2 knots; 1.0 m/s)
Visibility: 6 or more miles (10+ km)
Ceiling: ceiling and visibility are OK
Clouds: unknown
Weather: no significant weather observed at this time

METAR text: LSGG 211820Z 06002KT 9999 FEW065 SCT120 16/04 Q1013 NOSIG
Conditions at: LSGG (GENEVA/COINTRIN , CH) observed 1820 UTC 21 April 2019
Temperature: 16.0°C (61°F)
Dewpoint: 4.0°C (39°F) [RH = 45%]
Pressure (altimeter): 29.91 inches Hg (1013.0 mb)
Winds: from the ENE (60 degrees) at 2 MPH (2 knots; 1.0 m/s)
Visibility: 6 or more miles (10+ km)
Ceiling: at least 12,000 feet AGL
Clouds: few clouds at 6500 feet AGL
scattered clouds at 12000 feet AGL
Weather: no significant weather observed at this time

METAR text: LSGG 211750Z 06002KT 9999 FEW065 BKN120 17/03 Q1013 NOSIG
Conditions at: LSGG (GENEVA/COINTRIN , CH) observed 1750 UTC 21 April 2019
Temperature: 17.0°C (63°F)
Dewpoint: 3.0°C (37°F) [RH = 39%]
Pressure (altimeter): 29.91 inches Hg (1013.0 mb)
Winds: from the ENE (60 degrees) at 2 MPH (2 knots; 1.0 m/s)
Visibility: 6 or more miles (10+ km)
Ceiling: 12000 feet AGL
Clouds: few clouds at 6500 feet AGL
broken clouds at 12000 feet AGL
Weather: no significant weather observed at this time

METAR text: LSGG 211720Z 11003KT CAVOK 18/05 Q1013 NOSIG
Conditions at: LSGG (GENEVA/COINTRIN , CH) observed 1720 UTC 21 April 2019
Temperature: 18.0°C (64°F)
Dewpoint: 5.0°C (41°F) [RH = 42%]
Pressure (altimeter): 29.91 inches Hg (1013.0 mb)
Winds: from the ESE (110 degrees) at 3 MPH (3 knots; 1.5 m/s)
Visibility: 6 or more miles (10+ km)
Ceiling: ceiling and visibility are OK
Clouds: unknown
Weather: no significant weather observed at this time

METAR text: LSGG 211650Z VRB02KT CAVOK 19/03 Q1014 NOSIG
Conditions at: LSGG (GENEVA/COINTRIN , CH) observed 1650 UTC 21 April 2019
Temperature: 19.0°C (66°F)
Dewpoint: 3.0°C (37°F) [RH = 34%]
Pressure (altimeter): 29.94 inches Hg (1014.0 mb)
Winds: variable direction winds at 2 MPH (2 knots; 1.0 m/s)
Visibility: 6 or more miles (10+ km)
Ceiling: ceiling and visibility are OK
Clouds: unknown
Weather: no significant weather observed at this time

METAR text: LSGG 211620Z VRB02KT 9999 FEW090 BKN140 19/05 Q1014 NOSIG
Conditions at: LSGG (GENEVA/COINTRIN , CH) observed 1620 UTC 21 April 2019
Temperature: 19.0°C (66°F)
Dewpoint: 5.0°C (41°F) [RH = 40%]
Pressure (altimeter): 29.94 inches Hg (1014.0 mb)
Winds: variable direction winds at 2 MPH (2 knots; 1.0 m/s)
Visibility: 6 or more miles (10+ km)
Ceiling: 14000 feet AGL
Clouds: few clouds at 9000 feet AGL
broken clouds at 14000 feet AGL
Weather: no significant weather observed at this time

METAR text: LSGG 211550Z 01003KT 9999 OVC095 19/05 Q1015 NOSIG
Conditions at: LSGG (GENEVA/COINTRIN , CH) observed 1550 UTC 21 April 2019
Temperature: 19.0°C (66°F)
Dewpoint: 5.0°C (41°F) [RH = 40%]
Pressure (altimeter): 29.97 inches Hg (1015.0 mb)
Winds: from the N (10 degrees) at 3 MPH (3 knots; 1.5 m/s)
Visibility: 6 or more miles (10+ km)
Ceiling: 9500 feet AGL
Clouds: overcast cloud deck at 9500 feet AGL
Weather: no significant weather observed at this time

METAR text: LSGG 211520Z 03005KT CAVOK 20/02 Q1015 NOSIG
Conditions at: LSGG (GENEVA/COINTRIN , CH) observed 1520 UTC 21 April 2019
Temperature: 20.0°C (68°F)
Dewpoint: 2.0°C (36°F) [RH = 30%]
Pressure (altimeter): 29.97 inches Hg (1015.0 mb)
Winds: from the NNE (30 degrees) at 6 MPH (5 knots; 2.6 m/s)
Visibility: 6 or more miles (10+ km)
Ceiling: ceiling and visibility are OK
Clouds: unknown
Weather: no significant weather observed at this time

METAR text: LSGG 211450Z 06006KT 030V100 CAVOK 20/03 Q1015 NOSIG
Conditions at: LSGG (GENEVA/COINTRIN , CH) observed 1450 UTC 21 April 2019
Temperature: 20.0°C (68°F)
Dewpoint: 3.0°C (37°F) [RH = 32%]
Pressure (altimeter): 29.97 inches Hg (1015.0 mb)
Winds: from the ENE (60 degrees) at 7 MPH (6 knots; 3.1 m/s)
Visibility: 6 or more miles (10+ km)
Ceiling: ceiling and visibility are OK
Clouds: unknown
Weather: no significant weather observed at this time

METAR text: LSGG 211420Z 11006KT CAVOK 19/02 Q1015 NOSIG
Conditions at: LSGG (GENEVA/COINTRIN , CH) observed 1420 UTC 21 April 2019
Temperature: 19.0°C (66°F)
Dewpoint: 2.0°C (36°F) [RH = 32%]
Pressure (altimeter): 29.97 inches Hg (1015.0 mb)
Winds: from the ESE (110 degrees) at 7 MPH (6 knots; 3.1 m/s)
Visibility: 6 or more miles (10+ km)
Ceiling: ceiling and visibility are OK
Clouds: unknown
Weather: no significant weather observed at this time

METAR text: LSGG 211350Z 10007KT CAVOK 18/04 Q1016 NOSIG
Conditions at: LSGG (GENEVA/COINTRIN , CH) observed 1350 UTC 21 April 2019
Temperature: 18.0°C (64°F)
Dewpoint: 4.0°C (39°F) [RH = 39%]
Pressure (altimeter): 30.00 inches Hg (1016.0 mb)
Winds: from the E (100 degrees) at 8 MPH (7 knots; 3.6 m/s)
Visibility: 6 or more miles (10+ km)
Ceiling: ceiling and visibility are OK
Clouds: unknown
Weather: no significant weather observed at this time

METAR text: LSGG 211320Z 08004KT 040V140 9999 FEW080 OVC130 18/04 Q1016 NOSIG
Conditions at: LSGG (GENEVA/COINTRIN , CH) observed 1320 UTC 21 April 2019
Temperature: 18.0°C (64°F)
Dewpoint: 4.0°C (39°F) [RH = 39%]
Pressure (altimeter): 30.00 inches Hg (1016.0 mb)
Winds: from the E (80 degrees) at 5 MPH (4 knots; 2.1 m/s)
Visibility: 6 or more miles (10+ km)
Ceiling: 13000 feet AGL
Clouds: few clouds at 8000 feet AGL
overcast cloud deck at 13000 feet AGL
Weather: no significant weather observed at this time

METAR text: LSGG 211250Z 34003KT 290V020 9999 FEW070 BKN095 18/05 Q1017 NOSIG
Conditions at: LSGG (GENEVA/COINTRIN , CH) observed 1250 UTC 21 April 2019
Temperature: 18.0°C (64°F)
Dewpoint: 5.0°C (41°F) [RH = 42%]
Pressure (altimeter): 30.03 inches Hg (1017.0 mb)
Winds: from the NNW (340 degrees) at 3 MPH (3 knots; 1.5 m/s)
Visibility: 6 or more miles (10+ km)
Ceiling: 9500 feet AGL
Clouds: few clouds at 7000 feet AGL
broken clouds at 9500 feet AGL
Weather: no significant weather observed at this time

METAR text: LSGG 211220Z 02004KT 330V050 9999 FEW070 BKN090 18/04 Q1017 NOSIG
Conditions at: LSGG (GENEVA/COINTRIN , CH) observed 1220 UTC 21 April 2019
Temperature: 18.0°C (64°F)
Dewpoint: 4.0°C (39°F) [RH = 39%]
Pressure (altimeter): 30.03 inches Hg (1017.0 mb)
Winds: from the NNE (20 degrees) at 5 MPH (4 knots; 2.1 m/s)
Visibility: 6 or more miles (10+ km)
Ceiling: 9000 feet AGL
Clouds: few clouds at 7000 feet AGL
broken clouds at 9000 feet AGL
Weather: no significant weather observed at this time

METAR text: LSGG 211150Z VRB02KT 9999 FEW050 SCT095 BKN130 17/02 Q1018 NOSIG
Conditions at: LSGG (GENEVA/COINTRIN , CH) observed 1150 UTC 21 April 2019
Temperature: 17.0°C (63°F)
Dewpoint: 2.0°C (36°F) [RH = 36%]
Pressure (altimeter): 30.06 inches Hg (1018.0 mb)
Winds: variable direction winds at 2 MPH (2 knots; 1.0 m/s)
Visibility: 6 or more miles (10+ km)
Ceiling: 13000 feet AGL
Clouds: few clouds at 5000 feet AGL
scattered clouds at 9500 feet AGL
broken clouds at 13000 feet AGL
Weather: no significant weather observed at this time

METAR text: LSGG 211120Z 12008KT CAVOK 17/04 Q1018 NOSIG
Conditions at: LSGG (GENEVA/COINTRIN , CH) observed 1120 UTC 21 April 2019
Temperature: 17.0°C (63°F)
Dewpoint: 4.0°C (39°F) [RH = 42%]
Pressure (altimeter): 30.06 inches Hg (1018.0 mb)
Winds: from the ESE (120 degrees) at 9 MPH (8 knots; 4.1 m/s)
Visibility: 6 or more miles (10+ km)
Ceiling: ceiling and visibility are OK
Clouds: unknown
Weather: no significant weather observed at this time

METAR text: LSGG 211050Z 03008KT CAVOK 17/05 Q1018 NOSIG
Conditions at: LSGG (GENEVA/COINTRIN , CH) observed 1050 UTC 21 April 2019
Temperature: 17.0°C (63°F)
Dewpoint: 5.0°C (41°F) [RH = 45%]
Pressure (altimeter): 30.06 inches Hg (1018.0 mb)
Winds: from the NNE (30 degrees) at 9 MPH (8 knots; 4.1 m/s)
Visibility: 6 or more miles (10+ km)
Ceiling: ceiling and visibility are OK
Clouds: unknown
Weather: no significant weather observed at this time

METAR text: LSGG 211020Z 07003KT 030V130 CAVOK 17/04 Q1019 NOSIG
Conditions at: LSGG (GENEVA/COINTRIN , CH) observed 1020 UTC 21 April 2019
Temperature: 17.0°C (63°F)
Dewpoint: 4.0°C (39°F) [RH = 42%]
Pressure (altimeter): 30.09 inches Hg (1019.0 mb)
Winds: from the ENE (70 degrees) at 3 MPH (3 knots; 1.5 m/s)
Visibility: 6 or more miles (10+ km)
Ceiling: ceiling and visibility are OK
Clouds: unknown
Weather: no significant weather observed at this time

METAR text: LSGG 210950Z 14003KT 050V200 CAVOK 16/03 Q1019 NOSIG
Conditions at: LSGG (GENEVA/COINTRIN , CH) observed 0950 UTC 21 April 2019
Temperature: 16.0°C (61°F)
Dewpoint: 3.0°C (37°F) [RH = 42%]
Pressure (altimeter): 30.09 inches Hg (1019.0 mb)
Winds: from the SE (140 degrees) at 3 MPH (3 knots; 1.5 m/s)
Visibility: 6 or more miles (10+ km)
Ceiling: ceiling and visibility are OK
Clouds: unknown
Weather: no significant weather observed at this time

METAR text: LSGG 210920Z VRB02KT CAVOK 16/03 Q1019 NOSIG
Conditions at: LSGG (GENEVA/COINTRIN , CH) observed 0920 UTC 21 April 2019
Temperature: 16.0°C (61°F)
Dewpoint: 3.0°C (37°F) [RH = 42%]
Pressure (altimeter): 30.09 inches Hg (1019.0 mb)
Winds: variable direction winds at 2 MPH (2 knots; 1.0 m/s)
Visibility: 6 or more miles (10+ km)
Ceiling: ceiling and visibility are OK
Clouds: unknown
Weather: no significant weather observed at this time

METAR text: LSGG 210850Z VRB02KT CAVOK 15/04 Q1019 NOSIG
Conditions at: LSGG (GENEVA/COINTRIN , CH) observed 0850 UTC 21 April 2019
Temperature: 15.0°C (59°F)
Dewpoint: 4.0°C (39°F) [RH = 48%]
Pressure (altimeter): 30.09 inches Hg (1019.0 mb)
Winds: variable direction winds at 2 MPH (2 knots; 1.0 m/s)
Visibility: 6 or more miles (10+ km)
Ceiling: ceiling and visibility are OK
Clouds: unknown
Weather: no significant weather observed at this time

METAR text: LSGG 210820Z VRB02KT CAVOK 14/05 Q1019 NOSIG
Conditions at: LSGG (GENEVA/COINTRIN , CH) observed 0820 UTC 21 April 2019
Temperature: 14.0°C (57°F)
Dewpoint: 5.0°C (41°F) [RH = 55%]
Pressure (altimeter): 30.09 inches Hg (1019.0 mb)
Winds: variable direction winds at 2 MPH (2 knots; 1.0 m/s)
Visibility: 6 or more miles (10+ km)
Ceiling: ceiling and visibility are OK
Clouds: unknown
Weather: no significant weather observed at this time

METAR text: LSGG 210750Z VRB01KT CAVOK 13/04 Q1019 NOSIG
Conditions at: LSGG (GENEVA/COINTRIN , CH) observed 0750 UTC 21 April 2019
Temperature: 13.0°C (55°F)
Dewpoint: 4.0°C (39°F) [RH = 54%]
Pressure (altimeter): 30.09 inches Hg (1019.0 mb)
Winds: variable direction winds at 1 MPH (1 knots; 0.5 m/s)
Visibility: 6 or more miles (10+ km)
Ceiling: ceiling and visibility are OK
Clouds: unknown
Weather: no significant weather observed at this time

METAR text: LSGG 210720Z VRB01KT CAVOK 12/03 Q1019 NOSIG
Conditions at: LSGG (GENEVA/COINTRIN , CH) observed 0720 UTC 21 April 2019
Temperature: 12.0°C (54°F)
Dewpoint: 3.0°C (37°F) [RH = 54%]
Pressure (altimeter): 30.09 inches Hg (1019.0 mb)
Winds: variable direction winds at 1 MPH (1 knots; 0.5 m/s)
Visibility: 6 or more miles (10+ km)
Ceiling: ceiling and visibility are OK
Clouds: unknown
Weather: no significant weather observed at this time

METAR text: LSGG 210650Z VRB01KT CAVOK 11/04 Q1019 NOSIG
Conditions at: LSGG (GENEVA/COINTRIN , CH) observed 0650 UTC 21 April 2019
Temperature: 11.0°C (52°F)
Dewpoint: 4.0°C (39°F) [RH = 62%]
Pressure (altimeter): 30.09 inches Hg (1019.0 mb)
Winds: variable direction winds at 1 MPH (1 knots; 0.5 m/s)
Visibility: 6 or more miles (10+ km)
Ceiling: ceiling and visibility are OK
Clouds: unknown
Weather: no significant weather observed at this time

METAR text: LSGG 210620Z VRB01KT CAVOK 10/04 Q1019 NOSIG
Conditions at: LSGG (GENEVA/COINTRIN , CH) observed 0620 UTC 21 April 2019
Temperature: 10.0°C (50°F)
Dewpoint: 4.0°C (39°F) [RH = 66%]
Pressure (altimeter): 30.09 inches Hg (1019.0 mb)
Winds: variable direction winds at 1 MPH (1 knots; 0.5 m/s)
Visibility: 6 or more miles (10+ km)
Ceiling: ceiling and visibility are OK
Clouds: unknown
Weather: no significant weather observed at this time

METAR text: LSGG 210550Z 05001KT CAVOK 10/05 Q1019 NOSIG
Conditions at: LSGG (GENEVA/COINTRIN , CH) observed 0550 UTC 21 April 2019
Temperature: 10.0°C (50°F)
Dewpoint: 5.0°C (41°F) [RH = 71%]
Pressure (altimeter): 30.09 inches Hg (1019.0 mb)
Winds: from the NE (50 degrees) at 1 MPH (1 knots; 0.5 m/s)
Visibility: 6 or more miles (10+ km)
Ceiling: ceiling and visibility are OK
Clouds: unknown
Weather: no significant weather observed at this time

METAR text: LSGG 210520Z VRB01KT CAVOK 08/04 Q1019 NOSIG
Conditions at: LSGG (GENEVA/COINTRIN , CH) observed 0520 UTC 21 April 2019
Temperature: 8.0°C (46°F)
Dewpoint: 4.0°C (39°F) [RH = 76%]
Pressure (altimeter): 30.09 inches Hg (1019.0 mb)
Winds: variable direction winds at 1 MPH (1 knots; 0.5 m/s)
Visibility: 6 or more miles (10+ km)
Ceiling: ceiling and visibility are OK
Clouds: unknown
Weather: no significant weather observed at this time

METAR text: LSGG 210450Z VRB02KT CAVOK 08/04 Q1019 NOSIG
Conditions at: LSGG (GENEVA/COINTRIN , CH) observed 0450 UTC 21 April 2019
Temperature: 8.0°C (46°F)
Dewpoint: 4.0°C (39°F) [RH = 76%]
Pressure (altimeter): 30.09 inches Hg (1019.0 mb)
Winds: variable direction winds at 2 MPH (2 knots; 1.0 m/s)
Visibility: 6 or more miles (10+ km)
Ceiling: ceiling and visibility are OK
Clouds: unknown
Weather: no significant weather observed at this time

METAR text: LSGG 210420Z VRB01KT CAVOK 08/04 Q1019 NOSIG
Conditions at: LSGG (GENEVA/COINTRIN , CH) observed 0420 UTC 21 April 2019
Temperature: 8.0°C (46°F)
Dewpoint: 4.0°C (39°F) [RH = 76%]
Pressure (altimeter): 30.09 inches Hg (1019.0 mb)
Winds: variable direction winds at 1 MPH (1 knots; 0.5 m/s)
Visibility: 6 or more miles (10+ km)
Ceiling: ceiling and visibility are OK
Clouds: unknown
Weather: no significant weather observed at this time

METAR text: LSGG 210350Z 28002KT CAVOK 09/04 Q1019 NOSIG
Conditions at: LSGG (GENEVA/COINTRIN , CH) observed 0350 UTC 21 April 2019
Temperature: 9.0°C (48°F)
Dewpoint: 4.0°C (39°F) [RH = 71%]
Pressure (altimeter): 30.09 inches Hg (1019.0 mb)
Winds: from the W (280 degrees) at 2 MPH (2 knots; 1.0 m/s)
Visibility: 6 or more miles (10+ km)
Ceiling: ceiling and visibility are OK
Clouds: unknown
Weather: no significant weather observed at this time

METAR text: LSGG 210320Z AUTO VRB01KT CAVOK 09/04 Q1019 NOSIG
Conditions at: LSGG (GENEVA/COINTRIN , CH) observed 0320 UTC 21 April 2019
Temperature: 9.0°C (48°F)
Dewpoint: 4.0°C (39°F) [RH = 71%]
Pressure (altimeter): 30.09 inches Hg (1019.0 mb)
Winds: variable direction winds at 1 MPH (1 knots; 0.5 m/s)
Visibility: 6 or more miles (10+ km)
Ceiling: ceiling and visibility are OK
Clouds: unknown
Weather: no significant weather observed at this time

Forecast for: LSGG (GENEVA/COINTRIN , CH)
Text: TAF LSGG 221425Z 2215/2321 03008KT CAVOK TX23/2215Z TN08/2305Z TX21/2305Z
Forecast period: 1500 to 1800 UTC 22 April 2019
Forecast type: FROM: standard forecast or significant change
Winds: from the NNE (30 degrees) at 9 MPH (8 knots; 4.1 m/s)
Visibility: 6 or more miles 10+ km)
Ceiling: unknown
Clouds: missing
Weather: no significant weather forecast for this period
Text: BECMG 2218/2220 VRB03KT
Forecast period: 1800 UTC 22 April 2019 to 0000 UTC 23 April 2019
Forecast type: BECOMING: Conditions expected to become as follows by 2000 UTC 22 April 2019
Winds: variable direction winds at 3 MPH (3 knots; 1.5 m/s)
Visibility: 6 or more miles 10+ km)
Ceiling: unknown
Clouds: missing
Weather: no significant weather forecast for this period
Text: BECMG 2300/2302 9999 FEW050 BKN100
Forecast period: 0000 to 2100 UTC 23 April 2019
Forecast type: BECOMING: Conditions expected to become as follows by 0200 UTC 23 April 2019
Winds: variable direction winds at 3 MPH (3 knots; 1.5 m/s)
Visibility: 6 or more miles 10+ km)
Ceiling: 10000 feet AGL
Clouds: few clouds at 5000 feet AGL
broken clouds at 10000 feet AGL
Weather: no significant weather forecast for this period